createdAt,value
2022-09-22T00:01:07.667Z,1.5
2022-09-22T00:02:16.000Z,1.5
2022-09-22T00:03:24.494Z,1.6
2022-09-22T00:04:32.828Z,1.6
2022-09-22T00:05:41.181Z,1.6
2022-09-22T00:06:49.703Z,1.6
2022-09-22T00:07:58.082Z,1.6
2022-09-22T00:09:06.516Z,1.6
2022-09-22T00:10:14.942Z,1.4
2022-09-22T00:11:23.285Z,1.4
2022-09-22T00:12:31.633Z,1.4
2022-09-22T00:13:40.159Z,1.4
2022-09-22T00:14:48.504Z,1.4
2022-09-22T00:15:56.867Z,1.4
2022-09-22T00:17:05.404Z,1.5
2022-09-22T00:18:13.740Z,1.5
2022-09-22T00:19:22.082Z,1.5
2022-09-22T00:20:30.638Z,1.7
2022-09-22T00:21:39.024Z,1.7
2022-09-22T00:22:47.356Z,1.7
2022-09-22T00:23:55.901Z,1.4
2022-09-22T00:25:04.225Z,1.4
2022-09-22T00:26:12.568Z,1.4
2022-09-22T00:27:21.120Z,1.4
2022-09-22T00:28:29.445Z,1.4
2022-09-22T00:29:37.784Z,1.4
2022-09-22T00:30:46.316Z,1.7
2022-09-22T00:31:54.808Z,1.7
2022-09-22T00:33:03.011Z,1.7
2022-09-22T00:34:11.568Z,1.4
2022-09-22T00:35:19.891Z,1.4
2022-09-22T00:36:28.220Z,1.4
2022-09-22T00:37:36.803Z,1.5
2022-09-22T00:38:45.127Z,1.5
2022-09-22T00:39:53.473Z,1.5
2022-09-22T00:41:02.019Z,1.4
2022-09-22T00:42:10.344Z,1.4
2022-09-22T00:43:18.689Z,1.4
2022-09-22T00:44:27.255Z,1.5
2022-09-22T00:45:35.562Z,1.5
2022-09-22T00:46:43.961Z,1.5
2022-09-22T00:47:52.439Z,1.5
2022-09-22T00:49:00.785Z,1.5
2022-09-22T00:50:09.134Z,1.5
2022-09-22T00:51:17.673Z,1.9
2022-09-22T00:52:26.047Z,1.9
2022-09-22T00:53:34.403Z,1.9
2022-09-22T00:54:42.928Z,1.6
2022-09-22T00:55:51.260Z,1.6
2022-09-22T00:56:59.602Z,1.6
2022-09-22T00:58:08.158Z,1.4
2022-09-22T00:59:16.490Z,1.4
2022-09-22T01:00:24.911Z,1.4
2022-09-22T01:01:33.411Z,1.3
2022-09-22T01:02:41.740Z,1.3
2022-09-22T01:03:50.077Z,1.3
2022-09-22T01:04:58.636Z,1.8
2022-09-22T01:06:06.973Z,1.8
2022-09-22T01:07:15.329Z,1.8
2022-09-22T01:08:23.886Z,1.4
2022-09-22T01:09:32.252Z,1.4
2022-09-22T01:10:40.554Z,1.4
2022-09-22T01:11:49.114Z,1.7
2022-09-22T01:12:57.456Z,1.7
2022-09-22T01:14:05.780Z,1.7
2022-09-22T01:15:14.325Z,1.7
2022-09-22T01:16:22.708Z,1.7
2022-09-22T01:17:31.006Z,1.7
2022-09-22T01:18:39.549Z,1.7
2022-09-22T01:19:47.891Z,1.7
2022-09-22T01:20:56.230Z,1.7
2022-09-22T01:22:04.780Z,1.6
2022-09-22T01:23:13.118Z,1.6
2022-09-22T01:24:21.450Z,1.6
2022-09-22T01:25:30.005Z,1.9
2022-09-22T01:26:38.326Z,1.9
2022-09-22T01:27:46.673Z,1.9
2022-09-22T01:28:55.234Z,1.5
2022-09-22T01:30:03.561Z,1.5
2022-09-22T01:31:11.997Z,1.5
2022-09-22T01:32:20.466Z,1.8
2022-09-22T01:33:28.807Z,1.8
2022-09-22T01:34:37.147Z,1.8
2022-09-22T01:35:45.695Z,1.7
2022-09-22T01:36:54.028Z,1.7
2022-09-22T01:38:02.356Z,1.7
2022-09-22T01:39:10.893Z,1.8
2022-09-22T01:40:19.267Z,1.8
2022-09-22T01:41:27.599Z,1.8
2022-09-22T01:42:36.121Z,2
2022-09-22T01:43:44.462Z,2
2022-09-22T01:44:52.830Z,2
2022-09-22T01:46:01.396Z,1.9
2022-09-22T01:47:09.725Z,1.9
2022-09-22T01:48:18.053Z,1.9
2022-09-22T01:49:26.597Z,1.9
2022-09-22T01:50:34.941Z,1.9
2022-09-22T01:51:43.275Z,1.9
2022-09-22T01:52:51.836Z,2
2022-09-22T01:54:00.286Z,2
2022-09-22T01:55:08.504Z,2
2022-09-22T01:56:17.060Z,1.8
2022-09-22T01:57:25.433Z,1.8
2022-09-22T01:58:33.759Z,1.8
2022-09-22T01:59:42.304Z,2
2022-09-22T02:00:50.658Z,2
2022-09-22T02:01:59.126Z,2
2022-09-22T02:03:07.546Z,2
2022-09-22T02:04:15.875Z,2
2022-09-22T02:05:24.945Z,2
2022-09-22T02:06:33.491Z,2
2022-09-22T02:07:41.840Z,2
2022-09-22T02:08:50.171Z,2
2022-09-22T02:09:58.712Z,2
2022-09-22T02:11:07.042Z,2
2022-09-22T02:12:15.372Z,2
2022-09-22T02:13:23.959Z,2.4
2022-09-22T02:14:32.249Z,2.4
2022-09-22T02:15:40.622Z,2.4
2022-09-22T02:16:49.141Z,2
2022-09-22T02:17:57.484Z,2
2022-09-22T02:19:12.282Z,2
2022-09-22T02:20:14.375Z,2.1
2022-09-22T02:21:22.701Z,2.1
2022-09-22T02:22:31.041Z,2.1
2022-09-22T02:23:39.584Z,2.2
2022-09-22T02:24:47.925Z,2.2
2022-09-22T02:25:56.261Z,2.2
2022-09-22T02:27:04.797Z,2
2022-09-22T02:28:13.134Z,2
2022-09-22T02:29:21.490Z,2
2022-09-22T02:30:30.028Z,2.2
2022-09-22T02:31:38.410Z,2.2
2022-09-22T02:32:46.702Z,2.2
2022-09-22T02:33:55.240Z,2.1
2022-09-22T02:35:03.592Z,2.1
2022-09-22T02:36:11.923Z,2.1
2022-09-22T02:37:20.467Z,2.2
2022-09-22T02:38:28.799Z,2.2
2022-09-22T02:39:37.140Z,2.2
2022-09-22T02:40:45.759Z,2.1
2022-09-22T02:41:54.025Z,2.1
2022-09-22T02:43:02.362Z,2.1
2022-09-22T02:44:10.915Z,2.1
2022-09-22T02:45:19.277Z,2.1
2022-09-22T02:46:27.675Z,2.1
2022-09-22T02:47:36.125Z,2
2022-09-22T02:48:44.459Z,2
2022-09-22T02:49:52.801Z,2
2022-09-22T02:51:01.345Z,2.2
2022-09-22T02:52:09.674Z,2.2
2022-09-22T02:53:18.006Z,2.2
2022-09-22T02:54:26.557Z,2.1
2022-09-22T02:55:34.919Z,2.1
2022-09-22T02:56:43.268Z,2.1
2022-09-22T02:57:51.813Z,2.2
2022-09-22T02:59:00.141Z,2.2
2022-09-22T03:00:08.491Z,2.2
2022-09-22T03:01:17.113Z,2
2022-09-22T03:02:25.377Z,2
2022-09-22T03:03:33.705Z,2
2022-09-22T03:04:42.302Z,2.2
2022-09-22T03:05:50.585Z,2.2
2022-09-22T03:06:58.927Z,2.2
2022-09-22T03:08:07.473Z,2.4
2022-09-22T03:09:15.807Z,2.4
2022-09-22T03:10:24.142Z,2.4
2022-09-22T03:11:32.680Z,2.5
2022-09-22T03:12:52.021Z,2.5
2022-09-22T03:13:49.342Z,2.5
2022-09-22T03:14:57.885Z,2.5
2022-09-22T03:16:06.273Z,2.5
2022-09-22T03:17:14.593Z,2.5
2022-09-22T03:18:23.116Z,3
2022-09-22T03:19:31.487Z,3
2022-09-22T03:20:39.827Z,3
2022-09-22T03:21:48.373Z,2.3
2022-09-22T03:22:56.711Z,2.3
2022-09-22T03:24:05.154Z,2.3
2022-09-22T03:25:13.617Z,2.3
2022-09-22T03:26:21.932Z,2.3
2022-09-22T03:27:30.293Z,2.3
2022-09-22T03:28:38.821Z,2.4
2022-09-22T03:29:47.166Z,2.4
2022-09-22T03:30:55.548Z,2.4
2022-09-22T03:32:04.029Z,2.5
2022-09-22T03:33:12.386Z,2.5
2022-09-22T03:34:20.713Z,2.5
2022-09-22T03:35:29.255Z,4.1
2022-09-22T03:36:37.587Z,4.1
2022-09-22T03:37:45.922Z,4.1
2022-09-22T03:38:55.131Z,3.3
2022-09-22T03:40:04.389Z,3.3
2022-09-22T03:41:12.734Z,3.3
2022-09-22T03:42:21.376Z,10.9
2022-09-22T03:43:29.783Z,10.9
2022-09-22T03:44:38.203Z,10.9
2022-09-22T03:45:46.895Z,18.4
2022-09-22T03:46:55.251Z,18.4
2022-09-22T03:48:03.669Z,18.4
2022-09-22T03:49:12.330Z,16.700001
2022-09-22T03:50:20.869Z,16.700001
2022-09-22T03:51:29.262Z,16.700001
2022-09-22T03:52:37.868Z,9.8
2022-09-22T03:53:46.299Z,9.8
2022-09-22T03:54:54.729Z,9.8
2022-09-22T03:56:03.407Z,7.7
2022-09-22T03:57:11.846Z,7.7
2022-09-22T03:58:20.279Z,7.7
2022-09-22T03:59:28.918Z,5
2022-09-22T04:00:37.432Z,5
2022-09-22T04:01:45.910Z,5
2022-09-22T04:02:54.474Z,4.4
2022-09-22T04:04:02.890Z,4.4
2022-09-22T04:05:11.356Z,4.4
2022-09-22T04:06:19.960Z,4
2022-09-22T04:07:28.604Z,4
2022-09-22T04:08:37.039Z,4
2022-09-22T04:09:45.743Z,4.2
2022-09-22T04:10:54.150Z,4.2
2022-09-22T04:12:02.612Z,4.2
2022-09-22T04:13:11.256Z,3.9
2022-09-22T04:14:19.678Z,3.9
2022-09-22T04:15:28.301Z,3.9
2022-09-22T04:16:36.936Z,3.4
2022-09-22T04:17:45.348Z,3.4
2022-09-22T04:18:53.815Z,3.4
2022-09-22T04:20:02.440Z,3
2022-09-22T04:21:10.855Z,3
2022-09-22T04:22:19.239Z,3
2022-09-22T04:23:27.912Z,3.2
2022-09-22T04:24:36.329Z,3.2
2022-09-22T04:25:44.764Z,3.2
2022-09-22T04:27:15.509Z,3.3
2022-09-22T04:28:05.395Z,3.3
2022-09-22T04:29:10.283Z,3.3
2022-09-22T04:30:18.882Z,3.1
2022-09-22T04:31:27.319Z,3.1
2022-09-22T04:32:35.799Z,3.1
2022-09-22T04:33:44.425Z,3.2
2022-09-22T04:34:52.847Z,3.2
2022-09-22T04:36:01.256Z,3.2
2022-09-22T04:37:09.896Z,3.5
2022-09-22T04:38:18.307Z,3.5
2022-09-22T04:39:26.742Z,3.5
2022-09-22T04:40:35.439Z,4.5
2022-09-22T04:41:43.823Z,4.5
2022-09-22T04:42:52.289Z,4.5
2022-09-22T04:44:00.918Z,6.5
2022-09-22T04:45:09.381Z,6.5
2022-09-22T04:46:17.803Z,6.5
2022-09-22T04:47:26.407Z,5.7
2022-09-22T04:48:34.832Z,5.7
2022-09-22T04:49:43.282Z,5.7
2022-09-22T04:50:51.907Z,4.5
2022-09-22T04:52:00.359Z,4.5
2022-09-22T04:53:08.808Z,4.5
2022-09-22T04:54:17.387Z,3.4
2022-09-22T04:55:25.798Z,3.4
2022-09-22T04:56:34.202Z,3.4
2022-09-22T04:57:42.860Z,7.4
2022-09-22T04:58:51.271Z,7.4
2022-09-22T04:59:59.673Z,7.4
2022-09-22T05:01:08.360Z,5.3
2022-09-22T05:02:16.710Z,5.3
2022-09-22T05:03:25.205Z,5.3
2022-09-22T05:04:33.763Z,6.8
2022-09-22T05:05:42.159Z,6.8
2022-09-22T05:06:50.561Z,6.8
2022-09-22T05:07:59.192Z,3.7
2022-09-22T05:09:07.626Z,3.7
2022-09-22T05:10:16.047Z,3.7
2022-09-22T05:11:24.665Z,3.3
2022-09-22T05:12:33.070Z,3.3
2022-09-22T05:13:41.485Z,3.3
2022-09-22T05:14:50.101Z,4.3
2022-09-22T05:15:58.511Z,4.3
2022-09-22T05:17:06.966Z,4.3
2022-09-22T05:18:15.565Z,5.4
2022-09-22T05:19:24.007Z,5.4
2022-09-22T05:20:32.409Z,5.4
2022-09-22T05:21:41.065Z,6.6
2022-09-22T05:22:49.500Z,6.6
2022-09-22T05:23:57.948Z,6.6
2022-09-22T05:25:06.553Z,6.9
2022-09-22T05:26:14.938Z,6.9
2022-09-22T05:27:23.342Z,6.9
2022-09-22T05:28:31.970Z,6
2022-09-22T05:29:40.369Z,6
2022-09-22T05:30:48.775Z,6
2022-09-22T05:31:57.469Z,4.8
2022-09-22T05:33:05.830Z,4.8
2022-09-22T05:34:14.284Z,4.8
2022-09-22T05:35:22.911Z,7.4
2022-09-22T05:36:31.300Z,7.4
2022-09-22T05:37:39.723Z,7.4
2022-09-22T05:38:48.380Z,5.9
2022-09-22T05:39:56.777Z,5.9
2022-09-22T05:41:05.216Z,5.9
2022-09-22T05:42:13.820Z,5.3
2022-09-22T05:43:22.253Z,5.3
2022-09-22T05:44:30.645Z,5.3
2022-09-22T05:45:39.315Z,6.4
2022-09-22T05:46:47.694Z,6.4
2022-09-22T05:47:56.148Z,6.4
2022-09-22T05:49:04.781Z,10.1
2022-09-22T05:50:13.184Z,10.1
2022-09-22T05:51:21.596Z,10.1
2022-09-22T05:52:30.240Z,8.5
2022-09-22T05:53:38.662Z,8.5
2022-09-22T05:54:47.073Z,8.5
2022-09-22T05:55:55.704Z,8
2022-09-22T05:57:04.132Z,8
2022-09-22T05:58:12.525Z,8
2022-09-22T05:59:21.148Z,10
2022-09-22T06:00:29.543Z,10
2022-09-22T06:01:37.967Z,10
2022-09-22T06:02:46.646Z,8.7
2022-09-22T06:03:55.018Z,8.7
2022-09-22T06:05:03.433Z,8.7
2022-09-22T06:06:12.063Z,10.7
2022-09-22T06:07:20.487Z,10.7
2022-09-22T06:08:28.905Z,10.7
2022-09-22T06:09:37.545Z,9.5
2022-09-22T06:10:45.972Z,9.5
2022-09-22T06:11:54.374Z,9.5
2022-09-22T06:13:03.041Z,9.1
2022-09-22T06:14:11.412Z,9.1
2022-09-22T06:15:19.827Z,9.1
2022-09-22T06:16:28.513Z,8.9
2022-09-22T06:17:36.855Z,8.9
2022-09-22T06:18:45.271Z,8.9
2022-09-22T06:19:53.910Z,7.7
2022-09-22T06:21:02.307Z,7.7
2022-09-22T06:22:10.742Z,7.7
2022-09-22T06:23:19.374Z,6.8
2022-09-22T06:24:27.818Z,6.8
2022-09-22T06:25:36.223Z,6.8
2022-09-22T06:26:44.833Z,5.9
2022-09-22T06:27:53.261Z,5.9
2022-09-22T06:29:01.689Z,5.9
2022-09-22T06:30:10.295Z,5.2
2022-09-22T06:31:18.772Z,5.2
2022-09-22T06:32:27.129Z,5.2
2022-09-22T06:33:35.774Z,5.6
2022-09-22T06:34:44.201Z,5.6
2022-09-22T06:35:52.609Z,5.6
2022-09-22T06:37:01.222Z,4.8
2022-09-22T06:38:09.641Z,4.8
2022-09-22T06:39:18.050Z,4.8
2022-09-22T06:40:26.871Z,4
2022-09-22T06:41:35.104Z,4
2022-09-22T06:42:43.501Z,4
2022-09-22T06:43:52.123Z,3.5
2022-09-22T06:45:00.539Z,3.5
2022-09-22T06:46:08.943Z,3.5
2022-09-22T06:47:17.542Z,3.7
2022-09-22T06:48:25.948Z,3.7
2022-09-22T06:49:34.335Z,3.7
2022-09-22T06:50:42.969Z,6.8
2022-09-22T06:51:51.403Z,6.8
2022-09-22T06:52:59.816Z,6.8
2022-09-22T06:54:08.419Z,10
2022-09-22T06:55:16.837Z,10
2022-09-22T06:56:25.248Z,10
2022-09-22T06:57:33.920Z,8.2
2022-09-22T06:58:58.863Z,8.2
2022-09-22T06:59:50.717Z,8.2
2022-09-22T07:00:59.517Z,4.7
2022-09-22T07:02:07.884Z,4.7
2022-09-22T07:03:16.205Z,4.7
2022-09-22T07:04:24.859Z,4
2022-09-22T07:05:33.281Z,4
2022-09-22T07:06:41.671Z,4
2022-09-22T07:07:50.298Z,4.4
2022-09-22T07:08:58.745Z,4.4
2022-09-22T07:10:07.145Z,4.4
2022-09-22T07:11:15.800Z,4.8
2022-09-22T07:12:24.221Z,4.8
2022-09-22T07:13:32.643Z,4.8
2022-09-22T07:14:41.276Z,5
2022-09-22T07:15:49.724Z,5
2022-09-22T07:16:58.142Z,5
2022-09-22T07:18:06.729Z,5.5
2022-09-22T07:19:15.162Z,5.5
2022-09-22T07:20:24.547Z,5.5
2022-09-22T07:21:33.185Z,5.9
2022-09-22T07:22:41.613Z,5.9
2022-09-22T07:23:50.060Z,5.9
2022-09-22T07:24:58.659Z,6.3
2022-09-22T07:26:07.068Z,6.3
2022-09-22T07:27:15.510Z,6.3
2022-09-22T07:28:24.142Z,6.8
2022-09-22T07:29:32.547Z,6.8
2022-09-22T07:30:40.966Z,6.8
2022-09-22T07:31:49.640Z,5.2
2022-09-22T07:32:58.059Z,5.2
2022-09-22T07:34:06.445Z,5.2
2022-09-22T07:35:15.066Z,5.5
2022-09-22T07:36:23.471Z,5.5
2022-09-22T07:37:31.915Z,5.5
2022-09-22T07:38:40.534Z,5.7
2022-09-22T07:39:48.948Z,5.7
2022-09-22T07:40:57.376Z,5.7
2022-09-22T07:42:05.974Z,6.5
2022-09-22T07:43:14.402Z,6.5
2022-09-22T07:44:22.797Z,6.5
2022-09-22T07:45:31.435Z,6.4
2022-09-22T07:46:39.930Z,6.4
2022-09-22T07:47:48.276Z,6.4
2022-09-22T07:48:56.940Z,6.6
2022-09-22T07:50:05.293Z,6.6
2022-09-22T07:51:16.646Z,6.6
2022-09-22T07:52:22.360Z,6.4
2022-09-22T07:53:30.763Z,6.4
2022-09-22T07:54:39.168Z,6.4
2022-09-22T07:55:47.784Z,5.8
2022-09-22T07:56:56.194Z,5.8
2022-09-22T07:58:04.638Z,5.8
2022-09-22T07:59:13.260Z,6.2
2022-09-22T08:00:21.667Z,6.2
2022-09-22T08:01:30.104Z,6.2
2022-09-22T08:02:38.722Z,5.5
2022-09-22T08:03:47.140Z,5.5
2022-09-22T08:04:55.580Z,5.5
2022-09-22T08:06:06.175Z,5.6
2022-09-22T08:07:12.593Z,5.6
2022-09-22T08:08:21.003Z,5.6
2022-09-22T08:09:29.635Z,6.2
2022-09-22T08:10:38.015Z,6.2
2022-09-22T08:11:46.460Z,6.2
2022-09-22T08:12:55.059Z,5.2
2022-09-22T08:14:03.525Z,5.2
2022-09-22T08:15:11.887Z,5.2
2022-09-22T08:16:20.527Z,4.9
2022-09-22T08:17:28.955Z,4.9
2022-09-22T08:18:37.392Z,4.9
2022-09-22T08:19:46.020Z,5.1
2022-09-22T08:20:54.470Z,5.1
2022-09-22T08:22:02.843Z,5.1
2022-09-22T08:23:11.469Z,5.6
2022-09-22T08:24:19.873Z,5.6
2022-09-22T08:25:28.313Z,5.6
2022-09-22T08:26:36.950Z,5.5
2022-09-22T08:27:45.334Z,5.5
2022-09-22T08:28:53.754Z,5.5
2022-09-22T08:30:02.370Z,6.5
2022-09-22T08:31:10.848Z,6.5
2022-09-22T08:32:19.203Z,6.5
2022-09-22T08:33:27.855Z,7.9
2022-09-22T08:34:36.286Z,7.9
2022-09-22T08:35:44.683Z,7.9
2022-09-22T08:36:53.487Z,7.7
2022-09-22T08:38:01.750Z,7.7
2022-09-22T08:39:10.153Z,7.7
2022-09-22T08:40:18.910Z,6.3
2022-09-22T08:41:27.208Z,6.3
2022-09-22T08:42:35.631Z,6.3
2022-09-22T08:43:44.233Z,5.3
2022-09-22T08:44:52.625Z,5.3
2022-09-22T08:46:01.061Z,5.3
2022-09-22T08:47:09.711Z,7.1
2022-09-22T08:48:18.118Z,7.1
2022-09-22T08:49:26.525Z,7.1
2022-09-22T08:50:35.146Z,6
2022-09-22T08:51:43.570Z,6
2022-09-22T08:52:52.020Z,6
2022-09-22T08:54:03.421Z,6.6
2022-09-22T08:55:08.995Z,6.6
2022-09-22T08:56:17.444Z,6.6
2022-09-22T08:57:26.046Z,5.8
2022-09-22T08:58:34.463Z,5.8
2022-09-22T08:59:42.875Z,5.8
2022-09-22T09:00:51.542Z,5.8
2022-09-22T09:01:59.985Z,5.8
2022-09-22T09:03:08.403Z,5.8
2022-09-22T09:04:16.986Z,5.1
2022-09-22T09:05:25.418Z,5.1
2022-09-22T09:06:33.827Z,5.1
2022-09-22T09:07:42.446Z,6.4
2022-09-22T09:08:50.898Z,6.4
2022-09-22T09:09:59.280Z,6.4
2022-09-22T09:11:07.951Z,5
2022-09-22T09:12:16.332Z,5
2022-09-22T09:13:24.752Z,5
2022-09-22T09:14:33.360Z,4.8
2022-09-22T09:15:41.809Z,4.8
2022-09-22T09:16:50.221Z,4.8
2022-09-22T09:17:58.846Z,4.7
2022-09-22T09:19:07.255Z,4.7
2022-09-22T09:20:15.682Z,4.7
2022-09-22T09:21:24.334Z,4.7
2022-09-22T09:22:32.741Z,4.7
2022-09-22T09:25:58.231Z,4.4
2022-09-22T09:27:06.617Z,4.4
2022-09-22T09:28:15.251Z,4.1
2022-09-22T09:29:23.658Z,4.1
2022-09-22T09:30:32.108Z,4.1
2022-09-22T09:31:40.731Z,3.6
2022-09-22T09:32:49.132Z,3.6
2022-09-22T09:33:57.554Z,3.6
2022-09-22T09:35:06.207Z,3.4
2022-09-22T09:36:17.692Z,3.4
2022-09-22T09:37:23.032Z,3.4
2022-09-22T09:38:31.620Z,3.4
2022-09-22T09:39:40.047Z,3.4
2022-09-22T09:40:48.501Z,3.4
2022-09-22T09:41:57.104Z,2.9
2022-09-22T09:43:05.534Z,2.9
2022-09-22T09:44:18.099Z,2.9
2022-09-22T09:45:22.571Z,2.8
2022-09-22T09:46:30.994Z,2.8
2022-09-22T09:47:39.404Z,2.8
2022-09-22T09:48:48.021Z,1.9
2022-09-22T09:49:56.438Z,1.9
2022-09-22T09:51:04.851Z,1.9
2022-09-22T09:52:13.457Z,2.1
2022-09-22T09:53:21.885Z,2.1
2022-09-22T09:54:30.297Z,2.1
2022-09-22T09:55:38.920Z,2
2022-09-22T09:56:47.377Z,2
2022-09-22T09:57:55.768Z,2
2022-09-22T09:59:04.371Z,1.9
2022-09-22T10:00:12.945Z,1.9
2022-09-22T10:01:22.043Z,1.9
2022-09-22T10:02:31.150Z,1.3
2022-09-22T10:03:39.583Z,1.3
2022-09-22T10:04:47.985Z,1.3
2022-09-22T10:05:56.679Z,1.7
2022-09-22T10:07:05.106Z,1.7
2022-09-22T10:08:13.496Z,1.7
2022-09-22T10:09:22.123Z,2
2022-09-22T10:10:30.538Z,2
2022-09-22T10:11:38.957Z,2
2022-09-22T10:12:47.588Z,1.4
2022-09-22T10:13:55.978Z,1.4
2022-09-22T10:15:04.627Z,1.4
2022-09-22T10:16:13.351Z,1.4
2022-09-22T10:17:21.728Z,1.4
2022-09-22T10:18:30.210Z,1.4
2022-09-22T10:19:38.801Z,1.7
2022-09-22T10:20:47.227Z,1.7
2022-09-22T10:21:55.647Z,1.7
2022-09-22T10:23:04.407Z,1.6
2022-09-22T10:24:12.791Z,1.6
2022-09-22T10:25:21.237Z,1.6
2022-09-22T10:26:29.857Z,0.9
2022-09-22T10:27:38.261Z,0.9
2022-09-22T10:28:46.719Z,0.9
2022-09-22T10:29:55.308Z,1.3
2022-09-22T10:31:03.759Z,1.3
2022-09-22T10:32:12.181Z,1.3
2022-09-22T10:33:20.805Z,0.9
2022-09-22T10:34:29.238Z,0.9
2022-09-22T10:35:37.682Z,0.9
2022-09-22T10:36:46.302Z,1.3
2022-09-22T10:37:54.762Z,1.3
2022-09-22T10:39:03.280Z,1.3
2022-09-22T10:40:11.839Z,1.2
2022-09-22T10:41:20.219Z,1.2
2022-09-22T10:42:28.697Z,1.2
2022-09-22T10:43:37.264Z,0.9
2022-09-22T10:44:48.757Z,0.9
2022-09-22T10:45:54.370Z,0.9
2022-09-22T10:47:04.089Z,1.3
2022-09-22T10:48:12.849Z,1.3
2022-09-22T10:49:21.470Z,1.3
2022-09-22T10:50:30.292Z,1.6
2022-09-22T10:51:38.847Z,1.6
2022-09-22T10:52:47.314Z,1.6
2022-09-22T10:53:55.945Z,1.9
2022-09-22T10:55:04.386Z,1.9
2022-09-22T10:56:12.834Z,1.9
2022-09-22T10:57:21.448Z,1
2022-09-22T10:58:29.876Z,1
2022-09-22T10:59:38.315Z,1
2022-09-22T11:00:46.979Z,1.1
2022-09-22T11:01:55.434Z,1.1
2022-09-22T11:03:03.801Z,1.1
2022-09-22T11:04:12.480Z,1.2
2022-09-22T11:05:20.855Z,1.2
2022-09-22T11:06:29.271Z,1.2
2022-09-22T11:07:37.901Z,1.1
2022-09-22T11:08:46.310Z,1.1
2022-09-22T11:09:54.765Z,1.1
2022-09-22T11:11:03.416Z,1
2022-09-22T11:12:11.809Z,1
2022-09-22T11:13:20.241Z,1
2022-09-22T11:14:28.880Z,1.4
2022-09-22T11:15:37.328Z,1.4
2022-09-22T11:16:45.761Z,1.4
2022-09-22T11:17:54.373Z,1.4
2022-09-22T11:19:02.799Z,1.4
2022-09-22T11:20:11.284Z,1.4
2022-09-22T11:21:19.858Z,1.3
2022-09-22T11:22:28.285Z,1.3
2022-09-22T11:23:36.736Z,1.3
2022-09-22T11:24:45.381Z,1
2022-09-22T11:25:53.798Z,1
2022-09-22T11:27:02.263Z,1
2022-09-22T11:28:10.898Z,1.6
2022-09-22T11:29:19.324Z,1.6
2022-09-22T11:30:27.843Z,1.6
2022-09-22T11:31:36.481Z,0.8
2022-09-22T11:32:44.950Z,0.8
2022-09-22T11:33:53.393Z,0.8
2022-09-22T11:35:02.022Z,0.7
2022-09-22T11:36:10.447Z,0.7
2022-09-22T11:37:18.867Z,0.7
2022-09-22T11:38:27.524Z,0.7
2022-09-22T11:39:36.131Z,0.7
2022-09-22T11:40:44.687Z,0.7
2022-09-22T11:41:53.193Z,0.8
2022-09-22T11:43:03.712Z,0.8
2022-09-22T11:44:10.087Z,0.8
2022-09-22T11:45:18.702Z,1.2
2022-09-22T11:46:27.124Z,1.2
2022-09-22T11:47:35.524Z,1.2
2022-09-22T11:48:44.194Z,1.1
2022-09-22T11:49:52.649Z,1.1
2022-09-22T11:51:01.047Z,1.1
2022-09-22T11:52:12.724Z,1.1
2022-09-22T11:53:18.135Z,1.1
2022-09-22T11:54:26.544Z,1.1
2022-09-22T11:55:35.179Z,0.9
2022-09-22T11:56:43.593Z,0.9
2022-09-22T11:57:52.004Z,0.9
2022-09-22T11:59:00.633Z,1.2
2022-09-22T12:00:09.050Z,1.2
2022-09-22T12:01:17.479Z,1.2
2022-09-22T12:02:26.172Z,0.9
2022-09-22T12:03:34.769Z,0.9
2022-09-22T12:04:43.027Z,0.9
2022-09-22T12:05:51.603Z,1.3
2022-09-22T12:07:00.037Z,1.3
2022-09-22T12:08:08.458Z,1.3
2022-09-22T12:09:17.114Z,1.2
2022-09-22T12:10:25.531Z,1.2
2022-09-22T12:11:33.907Z,1.2
2022-09-22T12:12:42.762Z,1.3
2022-09-22T12:13:51.176Z,1.3
2022-09-22T12:14:59.621Z,1.3
2022-09-22T12:16:08.228Z,1.2
2022-09-22T12:17:17.749Z,1.2
2022-09-22T12:18:25.104Z,1.2
2022-09-22T12:19:33.750Z,0.9
2022-09-22T12:20:42.203Z,0.9
2022-09-22T12:21:50.600Z,0.9
2022-09-22T12:22:59.266Z,1
2022-09-22T12:24:07.685Z,1
2022-09-22T12:25:21.108Z,1
2022-09-22T12:26:24.803Z,0.7
2022-09-22T12:27:33.226Z,0.7
2022-09-22T12:28:41.646Z,0.7
2022-09-22T12:29:50.318Z,0.6
2022-09-22T12:30:58.816Z,0.6
2022-09-22T12:32:07.189Z,0.6
2022-09-22T12:33:15.820Z,0.7
2022-09-22T12:34:24.244Z,0.7
2022-09-22T12:35:32.651Z,0.7
2022-09-22T12:36:41.308Z,0.9
2022-09-22T12:37:49.716Z,0.9
2022-09-22T12:38:58.126Z,0.9
2022-09-22T12:40:06.804Z,0.7
2022-09-22T12:41:15.172Z,0.7
2022-09-22T12:42:23.684Z,0.7
2022-09-22T12:43:32.384Z,0.6
2022-09-22T12:44:40.760Z,0.6
2022-09-22T12:45:49.263Z,0.6
2022-09-22T12:46:58.729Z,1
2022-09-22T12:48:08.392Z,1
2022-09-22T12:49:15.601Z,1
2022-09-22T12:50:24.218Z,0.7
2022-09-22T12:51:32.958Z,0.7
2022-09-22T12:52:42.022Z,0.7
2022-09-22T12:53:50.646Z,0.5
2022-09-22T12:54:59.047Z,0.5
2022-09-22T12:56:07.474Z,0.5
2022-09-22T12:57:16.107Z,0.6
2022-09-22T12:58:24.586Z,0.6
2022-09-22T12:59:33.036Z,0.6
2022-09-22T13:00:43.181Z,0.7
2022-09-22T13:01:52.523Z,0.7
2022-09-22T13:03:00.883Z,0.7
2022-09-22T13:04:09.534Z,1.2
2022-09-22T13:05:18.139Z,1.2
2022-09-22T13:06:26.552Z,1.2
2022-09-22T13:07:35.788Z,1
2022-09-22T13:08:44.641Z,1
2022-09-22T13:09:53.044Z,1
2022-09-22T13:11:01.683Z,1.1
2022-09-22T13:12:10.198Z,1.1
2022-09-22T13:13:18.645Z,1.1
2022-09-22T13:14:27.301Z,0.7
2022-09-22T13:15:35.746Z,0.7
2022-09-22T13:16:44.245Z,0.7
2022-09-22T13:17:52.817Z,0.8
2022-09-22T13:19:01.216Z,0.8
2022-09-22T13:20:09.686Z,0.8
2022-09-22T13:21:18.284Z,0.8
2022-09-22T13:22:26.779Z,0.8
2022-09-22T13:23:35.210Z,0.8
2022-09-22T13:24:43.889Z,0.7
2022-09-22T13:25:52.279Z,0.7
2022-09-22T13:27:00.691Z,0.7
2022-09-22T13:28:09.333Z,0.8
2022-09-22T13:29:17.757Z,0.8
2022-09-22T13:30:26.239Z,0.8
2022-09-22T13:31:34.815Z,0.8
2022-09-22T13:32:43.223Z,0.8
2022-09-22T13:33:51.720Z,0.8
2022-09-22T13:35:00.360Z,0.7
2022-09-22T13:36:08.795Z,0.7
2022-09-22T13:37:17.214Z,0.7
2022-09-22T13:38:25.892Z,0.6
2022-09-22T13:39:34.281Z,0.6
2022-09-22T13:40:42.762Z,0.6
2022-09-22T13:41:51.333Z,0.7
2022-09-22T13:42:59.742Z,0.7
2022-09-22T13:44:08.190Z,0.7
2022-09-22T13:45:16.804Z,0.5
2022-09-22T13:46:25.319Z,0.5
2022-09-22T13:47:33.657Z,0.5
2022-09-22T13:48:42.294Z,0.6
2022-09-22T13:49:50.736Z,0.6
2022-09-22T13:50:59.152Z,0.6
2022-09-22T13:52:07.790Z,1.2
2022-09-22T13:53:16.210Z,1.2
2022-09-22T13:54:24.656Z,1.2
2022-09-22T13:55:33.268Z,0.6
2022-09-22T13:56:41.742Z,0.6
2022-09-22T13:57:50.146Z,0.6
2022-09-22T13:58:58.788Z,0.6
2022-09-22T14:00:07.489Z,0.6
2022-09-22T14:01:16.001Z,0.6
2022-09-22T14:02:28.312Z,0.7
2022-09-22T14:03:32.973Z,0.7
2022-09-22T14:04:41.415Z,0.7
2022-09-22T14:05:53.854Z,0.9
2022-09-22T14:06:58.444Z,0.9
2022-09-22T14:08:12.703Z,0.9
2022-09-22T14:09:15.495Z,0.8
2022-09-22T14:10:23.949Z,0.8
2022-09-22T14:11:32.388Z,0.8
2022-09-22T14:12:41.110Z,0.9
2022-09-22T14:13:49.441Z,0.9
2022-09-22T14:14:57.997Z,0.9
2022-09-22T14:16:06.642Z,0.8
2022-09-22T14:17:15.058Z,0.8
2022-09-22T14:18:23.517Z,0.8
2022-09-22T14:19:32.148Z,0.9
2022-09-22T14:20:40.558Z,0.9
2022-09-22T14:21:49.002Z,0.9
2022-09-22T14:22:57.620Z,0.9
2022-09-22T14:24:06.077Z,0.9
2022-09-22T14:25:14.498Z,0.9
2022-09-22T14:26:23.107Z,0.7
2022-09-22T14:27:31.535Z,0.7
2022-09-22T14:28:40.018Z,0.7
2022-09-22T14:29:48.604Z,0.9
2022-09-22T15:04:11.469Z,0
2022-09-22T15:05:19.805Z,0
2022-09-22T15:06:28.203Z,0
2022-09-22T15:07:43.547Z,0.9
2022-09-22T15:08:51.974Z,0.9
2022-09-22T15:10:00.485Z,0.9
2022-09-22T15:11:08.958Z,0.9
2022-09-22T15:12:17.344Z,0.9
2022-09-22T15:13:25.712Z,0.9
2022-09-22T15:14:34.312Z,1.1
2022-09-22T15:15:42.718Z,1.1
2022-09-22T15:16:51.106Z,1.1
2022-09-22T15:17:59.682Z,0.8
2022-09-22T15:19:08.120Z,0.8
2022-09-22T15:20:16.565Z,0.8
2022-09-22T15:21:25.109Z,0.8
2022-09-22T15:22:33.470Z,0.8
2022-09-22T15:23:41.929Z,0.8
2022-09-22T15:24:50.402Z,0.8
2022-09-22T15:25:58.792Z,0.8
2022-09-22T15:27:07.160Z,0.8
2022-09-22T15:28:15.740Z,0.7
2022-09-22T15:29:24.127Z,0.7
2022-09-22T15:30:32.504Z,0.7
2022-09-22T15:31:41.155Z,0.7
2022-09-22T15:32:49.494Z,0.7
2022-09-22T15:33:57.876Z,0.7
2022-09-22T15:35:06.451Z,0.8
2022-09-22T15:36:14.964Z,0.8
2022-09-22T15:37:23.203Z,0.8
2022-09-22T15:38:31.758Z,1.1
2022-09-22T15:39:40.129Z,1.1
2022-09-22T15:40:48.535Z,1.1
2022-09-22T15:41:57.277Z,0.9
2022-09-22T15:43:13.546Z,0.9
2022-09-22T15:44:14.017Z,0.9
2022-09-22T15:45:22.589Z,1.1
2022-09-22T15:46:30.965Z,1.1
2022-09-22T15:47:39.337Z,1.1
2022-09-22T15:48:47.947Z,0.9
2022-09-22T15:49:56.305Z,0.9
2022-09-22T15:51:04.690Z,0.9
2022-09-22T15:52:13.265Z,0.7
2022-09-22T15:53:21.617Z,0.7
2022-09-22T15:54:29.990Z,0.7
2022-09-22T15:55:38.572Z,0.6
2022-09-22T15:56:46.936Z,0.6
2022-09-22T15:57:55.302Z,0.6
2022-09-22T15:59:03.876Z,0.6
2022-09-22T16:00:12.279Z,0.6
2022-09-22T16:01:20.768Z,0.6
2022-09-22T16:02:29.232Z,0.8
2022-09-22T16:03:40.929Z,0.8
2022-09-22T16:04:45.992Z,0.8
2022-09-22T16:05:54.559Z,0.8
2022-09-22T16:07:02.925Z,0.8
2022-09-22T16:08:11.323Z,0.8
2022-09-22T16:09:19.874Z,1.3
2022-09-22T16:10:28.262Z,1.3
2022-09-22T16:11:36.635Z,1.3
2022-09-22T16:12:45.211Z,1.4
2022-09-22T16:13:53.590Z,1.4
2022-09-22T16:15:01.968Z,1.4
2022-09-22T16:16:10.596Z,1.5
2022-09-22T16:17:18.918Z,1.5
2022-09-22T16:18:27.288Z,1.5
2022-09-22T16:19:35.893Z,1.9
2022-09-22T16:20:44.239Z,1.9
2022-09-22T16:21:52.606Z,1.9
2022-09-22T16:23:01.173Z,1.5
2022-09-22T16:24:09.802Z,1.5
2022-09-22T16:25:17.932Z,1.5